Time;durP1;ratioP1;P1;durP2;ratioP2;P2;SDS_P1;SDS_P2;PMS_P1;PMS_P2;Temp;Humidity;BMP_temperature;BMP_pressure;BME280_temperature;BME280_humidity;BME280_pressure;Samples;Min_cycle;Max_cycle;Signal;HPM_P1;HPM_P2
2021/04/20 00:00:14;;;;;;;15.88;10.77;;;3.10;99.90;;;2.34;80.56;97651.63;5018154;28;20414;-66
2021/04/20 00:02:41;;;;;;;18.05;11.82;;;3.10;99.90;;;2.24;80.23;97648.31;5008948;28;20532;-66
2021/04/20 00:05:15;;;;;;;20.60;12.70;;;3.10;99.90;;;2.22;80.21;97636.38;5026914;28;20047;-65
2021/04/20 00:07:42;;;;;;;16.55;9.65;;;3.10;99.90;;;2.20;79.22;97636.38;5028348;28;20133;-65
2021/04/20 00:10:16;;;;;;;16.40;10.60;;;3.00;99.90;;;2.13;78.67;97633.91;5017211;28;20075;-65
2021/04/20 00:12:43;;;;;;;16.90;11.23;;;3.00;99.90;;;1.94;79.34;97634.03;5007372;28;20184;-65
2021/04/20 00:15:13;;;;;;;17.80;11.80;;;2.90;99.90;;;1.84;80.11;97637.50;5024109;28;20076;-65
2021/04/20 00:17:39;;;;;;;15.68;10.40;;;2.90;99.90;;;1.83;80.65;97639.22;5025149;28;20165;-66
2021/04/20 00:20:12;;;;;;;18.23;10.65;;;2.80;99.90;;;1.82;81.00;97631.53;5025212;28;20048;-65
2021/04/20 00:22:39;;;;;;;15.75;9.90;;;2.80;99.90;;;2.04;79.36;97630.53;5007307;28;20772;-65
2021/04/20 00:25:06;;;;;;;17.70;10.48;;;2.80;99.90;;;2.00;79.06;97633.97;5012470;28;20053;-66
2021/04/20 00:27:33;;;;;;;20.17;11.10;;;2.80;99.90;;;1.92;79.36;97633.19;5029706;28;20045;-65
2021/04/20 00:29:59;;;;;;;16.40;10.52;;;2.80;99.90;;;2.04;78.56;97629.69;5007456;28;20456;-66
2021/04/20 00:32:25;;;;;;;16.73;11.10;;;2.80;99.90;;;1.92;79.90;97625.53;5016832;28;20108;-65
2021/04/20 00:34:52;;;;;;;27.05;16.73;;;2.80;99.90;;;1.76;84.25;97619.66;5014774;28;20105;-66
2021/04/20 00:37:18;;;;;;;30.77;18.02;;;2.70;99.90;;;1.80;84.34;97625.59;5010174;28;20030;-65
2021/04/20 00:39:45;;;;;;;20.88;13.23;;;2.80;99.90;;;1.84;82.78;97627.28;5022033;28;20107;-66
2021/04/20 00:42:11;;;;;;;21.63;14.00;;;2.70;99.90;;;1.90;81.19;97621.28;5031333;28;20045;-65
2021/04/20 00:44:38;;;;;;;21.48;12.68;;;2.70;99.90;;;1.87;81.28;97620.44;5028997;28;20038;-65
2021/04/20 00:47:05;;;;;;;22.00;13.63;;;2.70;99.90;;;1.81;81.45;97628.16;5022774;28;20037;-65
2021/04/20 00:49:31;;;;;;;25.33;15.48;;;2.70;99.90;;;1.80;83.96;97629.03;5027780;28;20049;-66
2021/04/20 00:51:58;;;;;;;19.02;11.25;;;2.70;99.90;;;1.58;80.98;97633.41;5030098;28;20042;-65
2021/04/20 00:54:25;;;;;;;28.38;16.52;;;2.70;99.90;;;1.49;81.35;97633.47;4993941;28;20552;-66
2021/04/20 00:56:52;;;;;;;26.90;16.42;;;2.50;99.90;;;1.46;83.34;97636.06;5028687;28;20115;-66
2021/04/20 00:59:20;;;;;;;22.95;14.02;;;2.40;99.90;;;1.70;82.57;97624.81;5027320;28;20041;-66
2021/04/20 01:01:47;;;;;;;19.17;12.15;;;2.50;99.90;;;1.48;80.96;97624.09;5032075;28;20532;-65
2021/04/20 01:04:17;;;;;;;16.70;11.13;;;2.50;99.90;;;1.46;80.56;97626.66;5013246;28;20060;-65
2021/04/20 01:06:48;;;;;;;18.23;11.18;;;2.40;99.90;;;1.50;80.59;97621.53;5009819;28;20041;-65
2021/04/20 01:09:17;;;;;;;24.08;15.02;;;2.40;99.90;;;1.51;82.26;97620.69;4992391;28;20045;-65
2021/04/20 01:11:47;;;;;;;21.00;13.40;;;2.40;99.90;;;1.49;82.76;97619.84;5024717;28;20064;-65
2021/04/20 01:14:14;;;;;;;20.58;12.77;;;2.30;99.90;;;1.43;82.11;97616.44;5015202;28;20112;-65
2021/04/20 01:16:41;;;;;;;20.77;12.98;;;2.40;99.90;;;1.56;82.50;97614.66;5000929;28;20046;-67
2021/04/20 01:19:10;;;;;;;22.20;12.32;;;2.40;99.90;;;1.58;81.88;97614.66;5013285;28;20046;-65
2021/04/20 01:21:37;;;;;;;20.88;12.73;;;2.40;99.90;;;1.51;81.59;97613.00;5026437;28;20387;-65
2021/04/20 01:24:08;;;;;;;21.80;13.85;;;2.50;99.90;;;1.49;81.64;97622.41;5024188;28;20038;-65
2021/04/20 01:26:38;;;;;;;17.58;12.10;;;2.40;99.90;;;1.39;81.31;97612.22;5008230;28;20048;-65
2021/04/20 01:29:06;;;;;;;26.13;16.10;;;2.40;99.90;;;1.35;82.61;97612.25;5025929;28;20045;-65
2021/04/20 01:31:36;;;;;;;23.83;15.40;;;2.30;99.90;;;1.33;83.10;97619.06;5004255;28;20096;-65
2021/04/20 01:34:03;;;;;;;27.67;17.00;;;2.20;99.90;;;1.34;82.54;97619.03;5023757;28;20064;-65
2021/04/20 01:36:30;;;;;;;18.40;11.70;;;2.30;99.90;;;1.28;81.27;97620.78;5007014;28;20117;-65
2021/04/20 01:38:59;;;;;;;19.27;11.95;;;2.20;99.90;;;1.31;80.92;97611.41;5008937;28;20112;-66
2021/04/20 01:41:28;;;;;;;26.58;16.25;;;2.20;99.90;;;1.29;81.91;97608.00;4990068;28;20057;-65
2021/04/20 01:43:57;;;;;;;20.58;12.77;;;2.20;99.90;;;1.25;82.15;97616.53;5019194;28;20045;-65
2021/04/20 01:46:24;;;;;;;20.33;11.70;;;2.20;99.90;;;1.29;80.86;97612.28;5013758;28;20063;-65
2021/04/20 01:48:54;;;;;;;21.05;13.05;;;2.20;99.90;;;1.27;80.62;97621.66;5025866;28;20049;-65
2021/04/20 01:51:23;;;;;;;21.20;13.98;;;2.20;99.90;;;1.24;82.01;97612.28;5027901;28;20057;-65
2021/04/20 01:53:51;;;;;;;29.80;18.23;;;2.10;99.90;;;1.14;84.26;97610.63;4992270;28;20537;-65
2021/04/20 01:56:18;;;;;;;29.63;18.17;;;2.00;99.90;;;1.01;85.31;97613.25;5007539;28;20184;-65
2021/04/20 01:58:47;;;;;;;25.02;15.38;;;2.00;99.90;;;0.95;85.16;97615.81;5005947;28;20041;-65
2021/04/20 02:01:19;;;;;;;25.27;14.93;;;1.90;99.90;;;1.11;84.19;97605.53;5009320;28;20041;-65
2021/04/20 02:03:48;;;;;;;20.80;13.23;;;1.90;99.90;;;1.15;82.65;97612.34;5008885;28;20041;-65
2021/04/20 02:06:17;;;;;;;19.80;12.43;;;2.00;99.90;;;1.16;82.27;97608.91;5030113;28;20104;-65
2021/04/20 02:08:47;;;;;;;20.63;12.90;;;2.00;99.90;;;1.15;82.38;97599.56;5022228;28;20079;-65
2021/04/20 02:11:17;;;;;;;23.15;14.50;;;2.10;99.90;;;1.21;82.44;97604.66;4999249;28;20050;-65
2021/04/20 02:14:04;;;;;;;21.88;13.77;;;2.10;99.90;;;1.30;82.32;97606.28;5007802;28;20056;-65
2021/04/20 02:16:52;;;;;;;21.67;13.27;;;2.10;99.90;;;1.34;81.10;97601.13;5020941;28;20045;-65
2021/04/20 02:19:40;;;;;;;19.25;12.55;;;2.10;99.90;;;1.15;79.85;97600.41;5011299;28;20045;-65
2021/04/20 02:22:27;;;;;;;18.88;11.38;;;2.00;99.90;;;1.02;80.45;97599.59;5012369;28;20108;-65
2021/04/20 02:24:59;;;;;;;17.13;10.85;;;2.00;99.90;;;0.95;80.49;97591.97;5014925;28;20045;-65
2021/04/20 02:27:26;;;;;;;24.63;15.15;;;1.90;99.90;;;0.99;81.71;97594.50;4992625;28;20057;-65
2021/04/20 02:29:53;;;;;;;20.15;13.30;;;1.90;99.90;;;0.99;81.66;97596.22;5001326;28;20041;-65
2021/04/20 02:32:19;;;;;;;22.30;14.27;;;1.90;99.90;;;0.87;81.13;97599.69;5005770;28;20042;-65
2021/04/20 02:34:46;;;;;;;17.88;11.40;;;1.90;99.90;;;0.96;81.10;97602.19;5025322;28;20048;-65
2021/04/20 02:37:13;;;;;;;18.10;11.77;;;1.90;99.90;;;1.03;80.55;97601.31;5006655;28;20045;-65
2021/04/20 02:39:40;;;;;;;26.75;15.60;;;1.90;99.90;;;0.95;83.66;97590.25;5019231;28;20509;-65
2021/04/20 02:42:07;;;;;;;23.27;15.52;;;1.90;99.90;;;0.93;84.51;97601.34;5028106;28;20518;-65
2021/04/20 02:44:33;;;;;;;28.25;17.02;;;1.80;99.90;;;0.69;85.76;97598.03;5026247;28;20461;-65
2021/04/20 02:47:03;;;;;;;24.90;15.73;;;1.70;99.90;;;0.83;84.91;97595.44;5004269;28;20046;-65
2021/04/20 02:49:31;;;;;;;20.10;12.55;;;1.70;99.90;;;0.85;83.30;97595.44;5022205;28;20099;-65
2021/04/20 02:52:10;;;;;;;30.00;15.35;;;1.70;99.90;;;0.71;85.88;97596.31;5009412;28;20117;-65
2021/04/20 02:54:37;;;;;;;26.70;16.10;;;1.70;99.90;;;0.75;86.09;97595.47;5024620;28;20046;-65
2021/04/20 02:57:05;;;;;;;21.80;12.90;;;1.70;99.90;;;0.82;84.80;97596.28;5025786;28;20387;-65
2021/04/20 02:59:53;;;;;;;22.35;13.13;;;1.70;99.90;;;0.90;83.38;97588.59;5017463;28;20517;-66
2021/04/20 03:02:37;;;;;;;17.92;11.50;;;1.70;99.90;;;0.92;82.86;97595.41;5009502;28;20041;-65
2021/04/20 03:05:15;;;;;;;19.55;11.63;;;1.80;99.90;;;0.87;81.73;97591.13;5006890;28;20049;-66
2021/04/20 03:07:43;;;;;;;20.70;11.80;;;1.80;99.90;;;0.76;81.72;97588.66;4992553;28;20430;-65
2021/04/20 03:10:32;;;;;;;19.30;12.57;;;1.80;99.90;;;0.80;82.30;97593.75;5029037;28;20073;-65
2021/04/20 03:13:06;;;;;;;24.23;15.07;;;1.70;99.90;;;0.89;82.33;97585.19;5006957;28;20056;-65
2021/04/20 03:15:34;;;;;;;26.27;15.85;;;1.80;99.90;;;0.91;83.17;97580.91;5031308;28;20359;-65
2021/04/20 03:18:00;;;;;;;21.95;13.52;;;1.80;99.90;;;0.63;82.96;97580.16;5010164;28;20052;-65
2021/04/20 03:20:28;;;;;;;21.40;12.50;;;1.90;99.90;;;0.85;81.53;97583.50;5005394;28;20045;-65
2021/04/20 03:23:15;;;;;;;18.67;11.80;;;1.80;99.90;;;0.57;81.40;97582.72;5005835;28;20053;-65
2021/04/20 03:26:26;;;;;;;20.17;12.85;;;1.70;99.90;;;0.68;81.92;97582.69;5027501;28;20136;-65
2021/04/20 03:29:10;;;;;;;18.75;11.60;;;1.80;99.90;;;0.75;81.01;97584.38;5021694;28;20064;-65
2021/04/20 03:31:41;;;;;;;20.30;11.50;;;1.70;99.90;;;0.68;80.69;97580.16;5004566;28;20049;-65
2021/04/20 03:34:36;;;;;;;20.67;11.73;;;1.80;99.90;;;0.64;80.53;97579.31;5025307;28;20038;-65
2021/04/20 03:37:45;;;;;;;18.08;11.95;;;1.70;99.90;;;0.53;81.03;97581.06;5025887;28;20052;-65
2021/04/20 03:40:34;;;;;;;18.30;12.02;;;1.70;99.90;;;0.58;80.97;97585.28;5013032;28;20464;-66
2021/04/20 03:43:25;;;;;;;20.42;11.88;;;1.60;99.90;;;0.71;80.37;97580.13;5009836;28;20045;-65
2021/04/20 03:46:13;;;;;;;19.52;11.70;;;1.60;99.90;;;0.73;80.25;97580.97;4992787;28;20420;-65
2021/04/20 03:48:46;;;;;;;22.33;13.10;;;1.50;99.90;;;0.55;80.35;97579.34;5009310;28;20052;-64
2021/04/20 03:51:16;;;;;;;24.00;15.30;;;1.50;99.90;;;0.49;81.47;97581.91;4993086;28;20055;-65
2021/04/20 03:53:48;;;;;;;23.15;12.95;;;1.50;99.90;;;0.53;81.75;97581.06;5010112;28;20107;-65
2021/04/20 03:56:15;;;;;;;26.25;13.52;;;1.50;99.90;;;0.55;81.85;97579.34;4988775;28;20192;-64
2021/04/20 03:58:44;;;;;;;34.65;15.20;;;1.60;99.90;;;0.45;81.44;97581.06;5033805;28;20051;-64
2021/04/20 04:01:12;;;;;;;26.65;15.15;;;1.60;99.90;;;0.47;82.57;97578.50;5006596;28;20100;-65
2021/04/20 04:03:40;;;;;;;50.88;17.35;;;1.50;99.90;;;0.38;83.81;97574.28;5005773;28;20045;-65
2021/04/20 04:06:08;;;;;;;29.02;15.90;;;1.60;99.90;;;0.50;82.91;97576.81;5008740;28;20042;-64
2021/04/20 04:08:36;;;;;;;54.53;15.85;;;1.60;99.90;;;0.33;83.33;97578.53;5024642;28;20096;-64
2021/04/20 04:11:07;;;;;;;46.47;16.38;;;1.60;99.90;;;0.46;82.96;97587.88;5019619;28;20092;-65
2021/04/20 04:13:41;;;;;;;37.38;17.65;;;1.50;99.90;;;0.47;83.84;97581.06;5008478;28;20045;-64
2021/04/20 04:16:12;;;;;;;33.15;16.42;;;1.50;99.90;;;0.43;82.39;97580.22;5025380;28;20080;-65
2021/04/20 04:18:46;;;;;;;29.73;16.15;;;1.50;99.90;;;0.31;82.44;97575.13;5023090;28;20037;-65
2021/04/20 04:21:17;;;;;;;25.92;14.18;;;1.40;99.90;;;0.19;83.24;97581.97;5006475;28;20050;-64
2021/04/20 04:23:47;;;;;;;33.08;15.95;;;1.40;99.90;;;0.20;83.63;97577.69;4996554;28;20559;-64
2021/04/20 04:26:28;;;;;;;101.07;21.95;;;1.30;99.90;;;0.31;83.85;97578.53;4992928;28;20042;-64
2021/04/20 04:29:15;;;;;;;46.85;15.85;;;1.30;99.90;;;0.37;83.29;97577.69;5022983;28;20067;-65
2021/04/20 04:32:06;;;;;;;58.35;19.30;;;1.40;99.90;;;0.08;83.99;97576.03;5010269;28;20072;-65
2021/04/20 04:34:40;;;;;;;40.03;17.48;;;1.40;99.90;;;0.40;82.62;97581.06;5016534;28;20049;-65
2021/04/20 04:37:09;;;;;;;75.13;19.25;;;1.40;99.90;;;0.19;83.21;97581.13;4989695;28;20479;-65
2021/04/20 04:39:35;;;;;;;74.13;19.63;;;1.40;99.90;;;0.14;84.19;97586.22;4983988;28;20065;-66
2021/04/20 04:42:22;;;;;;;43.03;18.27;;;1.40;99.90;;;0.20;84.28;97585.38;5014684;28;20049;-65
2021/04/20 04:44:49;;;;;;;45.30;20.17;;;1.40;99.90;;;0.30;84.09;97583.66;5026437;28;20131;-65
2021/04/20 04:47:16;;;;;;;155.65;25.63;;;1.40;99.90;;;0.18;85.51;97582.84;5025344;28;20045;-65
2021/04/20 04:49:46;;;;;;;475.52;37.47;;;1.50;99.90;;;0.09;85.93;97587.06;5009344;28;20530;-65
2021/04/20 04:52:18;;;;;;;48.85;21.45;;;1.40;99.90;;;0.35;83.62;97594.72;5009808;28;20045;-65
2021/04/20 04:54:45;;;;;;;62.25;23.38;;;1.30;99.90;;;0.24;85.11;97587.06;5024191;28;20056;-65
2021/04/20 04:57:13;;;;;;;52.65;21.83;;;1.30;99.90;;;0.25;84.54;97588.78;5010748;28;20052;-65
2021/04/20 04:59:42;;;;;;;504.33;61.67;;;1.40;99.90;;;0.04;88.32;97588.78;5005563;28;20044;-65
2021/04/20 05:02:11;;;;;;;317.63;43.17;;;1.40;99.90;;;-0.03;88.79;97590.50;5004931;28;20046;-65
2021/04/20 05:04:38;;;;;;;50.13;21.25;;;1.50;99.90;;;0.25;87.10;97587.91;5016697;28;20482;-65
2021/04/20 05:07:05;;;;;;;41.03;20.70;;;1.50;99.90;;;0.42;85.56;97586.19;5030424;28;20045;-65
2021/04/20 05:09:31;;;;;;;109.38;23.58;;;1.60;99.90;;;0.45;86.21;97595.53;5009390;28;20307;-65
2021/04/20 05:11:58;;;;;;;38.38;19.33;;;1.70;99.90;;;0.53;85.78;97587.00;5025395;28;20060;-65
2021/04/20 05:14:25;;;;;;;31.88;17.83;;;1.70;99.90;;;0.56;85.03;97592.09;4992204;28;20056;-65
2021/04/20 05:17:13;;;;;;;34.10;16.80;;;1.70;99.90;;;0.71;84.51;97590.34;5024089;28;20038;-65
2021/04/20 05:20:00;;;;;;;40.38;19.35;;;1.90;99.90;;;0.79;83.70;97593.72;5011087;28;20094;-65
2021/04/20 05:22:27;;;;;;;48.72;19.40;;;1.90;99.90;;;0.92;83.92;97595.41;4990450;28;20109;-65
2021/04/20 05:24:53;;;;;;;46.95;19.17;;;2.00;99.90;;;0.87;84.06;97604.78;5011097;28;20040;-65
2021/04/20 05:27:20;;;;;;;53.70;20.35;;;2.10;99.90;;;1.03;83.08;97597.91;5028889;28;20423;-65
2021/04/20 05:29:46;;;;;;;40.55;20.65;;;2.10;99.90;;;0.95;82.31;97599.63;5024939;28;20477;-65
2021/04/20 05:32:40;;;;;;;60.88;21.95;;;2.20;99.90;;;0.77;83.02;97598.84;5018243;28;20052;-65
2021/04/20 05:35:15;;;;;;;47.53;22.80;;;2.30;99.90;;;0.87;83.30;97596.25;5003726;28;20471;-65
2021/04/20 05:37:43;;;;;;;35.58;19.30;;;2.30;99.90;;;1.20;81.96;97600.38;5020548;28;20129;-65
2021/04/20 05:40:26;;;;;;;39.42;20.67;;;2.40;99.90;;;1.33;81.25;97596.06;5027235;28;20076;-64
2021/04/20 05:42:56;;;;;;;36.25;19.23;;;2.50;99.90;;;1.44;80.68;97592.56;5023355;28;20106;-64
2021/04/20 05:45:24;;;;;;;34.35;18.95;;;2.60;99.90;;;1.45;80.52;97593.41;5027655;28;20045;-64
2021/04/20 05:47:53;;;;;;;27.92;17.10;;;2.80;99.90;;;1.65;80.55;97590.75;5007295;28;20053;-64
2021/04/20 05:50:25;;;;;;;34.25;18.98;;;2.90;99.90;;;1.88;79.64;97583.72;5011689;28;20121;-64
2021/04/20 05:52:51;;;;;;;42.95;22.42;;;3.00;99.90;;;1.88;79.78;97591.41;5026400;28;20053;-64
2021/04/20 05:55:19;;;;;;;36.53;19.98;;;3.00;99.90;;;1.71;81.70;97589.81;5029730;28;20100;-64
2021/04/20 05:57:47;;;;;;;40.00;23.98;;;3.10;99.90;;;1.82;81.10;97596.56;5030667;28;20057;-64
2021/04/20 06:00:16;;;;;;;40.45;24.25;;;3.00;99.90;;;1.99;81.08;97591.31;5015804;28;20084;-65
2021/04/20 06:02:45;;;;;;;43.55;25.67;;;3.20;99.90;;;1.71;82.69;97593.25;5020765;28;20053;-64
2021/04/20 06:05:15;;;;;;;41.63;26.23;;;3.30;99.90;;;1.85;82.85;97593.16;5005977;28;20549;-64
2021/04/20 06:07:53;;;;;;;38.15;24.38;;;3.30;99.90;;;2.15;81.41;97591.19;5005293;28;20112;-64
2021/04/20 06:10:40;;;;;;;49.35;31.92;;;3.30;99.90;;;2.08;82.14;97600.66;5020016;28;20128;-64
2021/04/20 06:13:09;;;;;;;46.58;29.95;;;3.50;99.90;;;2.33;81.96;97598.72;4994271;28;20564;-64
2021/04/20 06:15:36;;;;;;;44.47;30.17;;;3.60;99.90;;;2.16;83.62;97598.84;5018512;28;20041;-64
2021/04/20 06:18:03;;;;;;;44.22;28.73;;;3.70;99.90;;;2.12;84.01;97592.06;4995454;28;20410;-65
2021/04/20 06:20:30;;;;;;;37.13;26.10;;;3.80;99.90;;;2.57;82.12;97597.59;5026373;28;20049;-64
2021/04/20 06:22:58;;;;;;;45.55;29.08;;;3.80;99.90;;;2.68;82.40;97589.81;5028802;28;20506;-64
2021/04/20 06:25:25;;;;;;;36.97;23.38;;;3.80;99.90;;;2.94;81.72;97592.06;5029323;28;20041;-64
2021/04/20 06:27:53;;;;;;;31.05;20.15;;;4.00;99.90;;;3.35;80.80;97596.69;5028882;28;20117;-64
2021/04/20 06:30:21;;;;;;;33.92;22.95;;;4.30;99.90;;;3.71;80.47;97601.31;5025475;28;20046;-64
2021/04/20 06:32:48;;;;;;;32.28;22.08;;;4.70;99.90;;;3.87;80.00;97605.34;5023251;28;20092;-65
2021/04/20 06:35:18;;;;;;;33.03;23.17;;;5.00;99.90;;;4.00;81.09;97594.88;5025694;28;20091;-66
2021/04/20 06:37:48;;;;;;;37.00;24.25;;;5.30;99.90;;;4.14;80.67;97598.91;5004222;28;20046;-64
2021/04/20 06:40:46;;;;;;;33.92;21.65;;;5.50;99.90;;;4.63;79.67;97606.63;5006748;28;20045;-64
2021/04/20 06:43:15;;;;;;;37.78;24.08;;;5.70;99.90;;;4.75;80.51;97609.84;5013245;28;20049;-65
2021/04/20 06:46:13;;;;;;;33.45;20.83;;;6.00;99.90;;;5.10;79.01;97602.31;5017367;28;20046;-64
2021/04/20 06:48:48;;;;;;;43.13;25.02;;;6.20;99.90;;;4.95;81.23;97612.03;5006048;28;20052;-64
2021/04/20 06:51:54;;;;;;;39.88;26.98;;;6.50;99.90;;;5.02;81.03;97599.91;5008464;28;20133;-64
2021/04/20 06:54:33;;;;;;;36.42;25.88;;;6.50;99.90;;;5.39;79.89;97606.84;5022444;28;20050;-64
2021/04/20 06:57:21;;;;;;;31.58;22.45;;;6.60;99.90;;;5.73;79.59;97604.38;5030220;28;20048;-65
2021/04/20 07:00:17;;;;;;;32.28;22.23;;;6.80;99.90;;;6.00;80.29;97604.66;5009870;28;20124;-65
2021/04/20 07:02:57;;;;;;;33.80;23.55;;;7.10;99.90;;;6.12;79.17;97599.19;5006809;28;20042;-64
2021/04/20 07:05:33;;;;;;;33.97;23.77;;;7.40;99.90;;;6.60;79.63;97600.56;5011362;28;20046;-64
2021/04/20 07:08:43;;;;;;;33.20;22.40;;;7.60;99.90;;;6.78;78.92;97597.50;4994060;28;20048;-64
2021/04/20 07:11:13;;;;;;;35.88;24.52;;;7.90;99.90;;;7.00;79.61;97591.72;5008530;28;20052;-65
2021/04/20 07:13:46;;;;;;;33.80;22.80;;;8.20;99.90;;;7.34;78.64;97591.59;5022079;28;20509;-65
2021/04/20 07:16:31;;;;;;;;;;;8.30;99.90;;;7.69;77.24;97593.16;5022395;28;20050;-64
2021/04/20 07:19:35;;;;;;;33.85;22.92;;;8.50;99.90;;;7.92;76.31;97586.41;5009377;28;20007;-64
2021/04/20 07:22:39;;;;;;;32.35;22.52;;;8.90;99.90;;;8.16;76.23;97580.47;5022948;28;20053;-65
2021/04/20 07:25:06;;;;;;;34.20;24.38;;;9.20;99.90;;;8.48;75.55;97590.63;5027073;28;20057;-64
2021/04/20 07:28:00;;;;;;;42.90;28.88;;;9.50;99.90;;;8.59;74.25;97589.38;5009305;28;20053;-64
2021/04/20 07:30:39;;;;;;;38.88;28.15;;;9.60;99.90;;;8.90;74.73;97587.47;5016339;28;20073;-64
2021/04/20 07:33:28;;;;;;;39.50;26.52;;;9.80;99.90;;;9.19;73.10;97584.66;4995691;28;20068;-65
2021/04/20 07:36:26;;;;;;;37.80;26.23;;;10.00;99.90;;;9.56;71.99;97582.44;5016141;28;20161;-64
2021/04/20 07:39:02;;;;;;;36.63;24.88;;;10.30;99.90;;;9.55;72.12;97584.16;5016588;28;20045;-65
2021/04/20 07:41:49;;;;;;;38.30;23.15;;;10.50;99.90;;;9.60;68.93;97584.00;5028672;28;20037;-64
2021/04/20 07:44:50;;;;;;;32.50;23.40;;;10.60;99.90;;;9.84;70.32;97585.63;5024173;28;20117;-65
2021/04/20 07:47:18;;;;;;;39.78;26.33;;;10.70;99.90;;;9.97;70.29;97585.16;5022691;28;20115;-65
2021/04/20 07:49:58;;;;;;;35.45;24.85;;;10.90;99.90;;;9.69;70.03;97583.63;5007555;28;20505;-64
2021/04/20 07:52:35;;;;;;;35.47;23.38;;;11.00;99.90;;;9.43;70.46;97589.81;4996189;28;20045;-64
2021/04/20 07:55:19;;;;;;;30.85;21.65;;;11.10;99.90;;;9.49;69.89;97580.97;5020215;28;20521;-65
2021/04/20 07:57:57;;;;;;;32.15;22.77;;;11.20;99.90;;;9.72;68.95;97580.09;5024653;28;20050;-65
2021/04/20 08:00:34;;;;;;;33.33;24.02;;;11.50;99.90;;;9.95;68.09;97574.84;5002997;28;20148;-65
2021/04/20 08:03:07;;;;;;;33.38;22.13;;;11.80;99.90;;;9.89;67.33;97577.66;5023097;28;20049;-64
2021/04/20 08:06:02;;;;;;;28.25;22.13;;;12.00;99.90;;;10.19;67.46;97577.34;4998823;28;20079;-65
2021/04/20 08:08:48;;;;;;;30.30;21.15;;;12.30;99.90;;;10.61;66.07;97571.31;5021072;28;20048;-65
2021/04/20 08:11:39;;;;;;;26.63;20.50;;;12.70;99.90;;;10.89;64.12;97568.34;5017194;28;20041;-65
2021/04/20 08:14:52;;;;;;;30.52;21.08;;;13.00;99.90;;;11.96;62.34;97565.19;5009868;28;20072;-65
2021/04/20 08:17:58;;;;;;;27.20;20.07;;;13.20;99.90;;;12.75;59.73;97570.78;4986589;28;20057;-65
2021/04/20 08:20:46;;;;;;;25.08;19.90;;;13.90;99.90;;;12.99;58.24;97562.59;5013567;28;20076;-65
2021/04/20 08:23:40;;;;;;;21.60;17.58;;;14.20;99.90;;;13.62;56.52;97561.03;5026954;28;20049;-65
2021/04/20 08:26:33;;;;;;;24.10;16.85;;;14.50;99.90;;;13.37;55.19;97554.53;5022285;28;20050;-65
2021/04/20 08:29:05;;;;;;;24.33;17.30;;;14.50;99.90;;;13.94;55.54;97557.47;5009864;28;20053;-65
2021/04/20 08:32:01;;;;;;;26.70;20.65;;;14.90;99.90;;;13.72;55.74;97556.97;5009376;28;20231;-65
2021/04/20 08:34:47;;;;;;;25.60;20.48;;;15.10;99.90;;;13.68;56.25;97552.84;5019374;28;20034;-65
2021/04/20 08:37:43;;;;;;;24.27;19.83;;;14.90;99.90;;;12.64;55.53;97557.47;4989011;28;20399;-65
2021/04/20 08:40:37;;;;;;;25.67;20.17;;;14.80;99.90;;;12.41;57.58;97563.84;4999954;28;20304;-66
2021/04/20 08:43:25;;;;;;;25.40;20.30;;;14.50;99.90;;;12.56;56.78;97557.84;5019963;28;20068;-65
2021/04/20 08:46:07;;;;;;;30.65;21.80;;;14.50;99.90;;;12.43;57.22;97561.16;5009880;28;20045;-65
2021/04/20 08:49:38;;;;;;;29.92;22.00;;;14.10;99.90;;;12.81;57.30;97550.53;5010985;28;20072;-65
2021/04/20 08:52:42;;;;;;;27.80;22.83;;;14.40;99.90;;;13.48;56.54;97552.19;5009483;28;20473;-65
2021/04/20 08:55:29;;;;;;;29.30;24.13;;;15.00;99.90;;;14.10;54.81;97554.81;5030616;28;20045;-65
2021/04/20 08:58:38;;;;;;;28.85;23.15;;;15.50;99.90;;;13.31;56.19;97554.88;4999690;28;20065;-65
2021/04/20 09:01:40;;;;;;;39.10;30.40;;;15.40;99.90;;;12.95;56.65;97563.69;5007899;28;20101;-65
2021/04/20 09:04:45;;;;;;;32.38;24.33;;;15.10;99.90;;;12.28;58.13;97563.59;4979756;28;20058;-65
2021/04/20 09:07:44;;;;;;;32.35;22.33;;;14.40;99.90;;;12.29;57.50;97565.31;5019705;28;20120;-64
2021/04/20 09:10:16;;;;;;;32.53;24.65;;;13.90;99.90;;;11.76;59.04;97573.06;5041770;28;20052;-65
2021/04/20 09:12:50;;;;;;;27.90;22.35;;;13.60;99.90;;;11.60;59.00;97570.34;5040305;28;20041;-64
2021/04/20 09:15:19;;;;;;;26.38;19.85;;;13.40;99.90;;;12.06;57.60;97569.00;5010966;28;20482;-65
2021/04/20 09:17:50;;;;;;;25.85;19.45;;;13.50;99.90;;;11.61;57.40;97570.28;5026991;28;20066;-65
2021/04/20 09:20:33;;;;;;;23.23;17.63;;;13.60;99.90;;;11.53;57.46;97577.59;5001493;28;20057;-64
2021/04/20 09:23:30;;;;;;;24.20;16.77;;;13.50;99.90;;;11.86;55.99;97563.91;5012249;28;20037;-65
2021/04/20 09:26:13;;;;;;;31.40;21.08;;;13.40;99.90;;;12.39;54.77;97555.25;5007423;28;20050;-64
2021/04/20 09:28:45;;;;;;;34.22;19.50;;;13.60;99.90;;;11.73;56.22;97564.50;5015595;28;20045;-65
2021/04/20 09:31:17;;;;;;;26.48;19.08;;;13.20;99.90;;;11.59;57.10;97566.06;5008406;28;20049;-64
2021/04/20 09:33:52;;;;;;;30.73;18.77;;;12.90;99.90;;;11.20;58.13;97564.38;5030833;28;20548;-65
2021/04/20 09:36:23;;;;;;;27.55;18.05;;;12.80;99.90;;;11.35;57.63;97570.63;5017417;28;20538;-65
2021/04/20 09:38:50;;;;;;;23.98;17.20;;;12.80;99.90;;;11.59;56.46;97568.66;5011318;28;20033;-65
2021/04/20 09:41:27;;;;;;;23.52;16.55;;;12.70;99.90;;;11.64;56.10;97562.31;5007765;28;20389;-65
2021/04/20 09:44:12;;;;;;;26.58;17.58;;;12.90;99.90;;;11.59;55.92;97558.28;5030423;28;20057;-65
2021/04/20 09:46:48;;;;;;;22.45;14.93;;;13.00;99.90;;;12.51;54.40;97549.44;5019170;28;20050;-64
2021/04/20 09:49:41;;;;;;;22.25;16.35;;;13.50;99.90;;;12.53;54.05;97550.19;5035600;28;20037;-65
2021/04/20 09:52:16;;;;;;;21.63;16.13;;;13.90;99.90;;;12.35;53.33;97557.16;5028965;28;20041;-66
2021/04/20 09:54:57;;;;;;;20.85;16.05;;;13.70;99.90;;;12.27;53.75;97561.06;5010848;28;20041;-65
2021/04/20 09:57:28;;;;;;;25.65;18.08;;;13.60;99.90;;;12.55;54.20;97557.94;5011124;28;20056;-65
2021/04/20 10:00:06;;;;;;;24.15;17.13;;;13.90;99.90;;;12.91;51.47;97560.41;5026755;28;20034;-65
2021/04/20 10:02:43;;;;;;;18.30;13.95;;;13.90;99.90;;;14.14;49.51;97547.63;5011939;28;20057;-65
2021/04/20 10:05:51;;;;;;;17.75;13.27;;;14.90;99.90;;;15.00;48.59;97540.81;5029021;28;20033;-65
2021/04/20 10:09:13;;;;;;;19.50;14.25;;;16.10;99.90;;;13.85;49.16;97542.31;5030483;28;20124;-65
2021/04/20 10:12:06;;;;;;;19.67;12.35;;;16.00;99.90;;;14.28;48.06;97536.41;5026488;28;20053;-65
2021/04/20 10:15:04;;;;;;;15.52;12.00;;;16.40;99.90;;;13.58;48.18;97532.50;5008990;28;20045;-65
2021/04/20 10:17:42;;;;;;;17.40;12.13;;;15.80;99.90;;;13.41;50.11;97537.81;5018253;28;20102;-65
2021/04/20 10:20:20;;;;;;;14.25;10.23;;;15.30;99.90;;;14.22;46.38;97533.22;5040351;28;20139;-66
2021/04/20 10:23:17;;;;;;;12.98;9.48;;;15.50;99.90;;;14.44;48.49;97534.59;4996825;28;20362;-65
2021/04/20 10:26:20;;;;;;;13.43;10.73;;;16.00;99.90;;;14.58;48.03;97533.81;5005709;28;20140;-65
2021/04/20 10:28:59;;;;;;;13.98;9.57;;;16.40;99.90;;;15.10;46.77;97525.44;5007867;28;20045;-65
2021/04/20 10:31:36;;;;;;;15.65;10.98;;;16.80;99.90;;;15.18;45.76;97527.56;5035632;28;20048;-65
2021/04/20 10:34:03;;;;;;;16.50;11.32;;;16.90;99.90;;;15.23;45.87;97531.56;5033683;28;20057;-66
2021/04/20 10:36:30;;;;;;;14.43;10.50;;;17.30;99.90;;;15.22;45.98;97523.81;5039628;28;20045;-65
2021/04/20 10:39:02;;;;;;;15.65;12.02;;;17.50;99.90;;;13.78;48.11;97522.72;5046957;28;20045;-65
2021/04/20 10:41:34;;;;;;;14.95;10.90;;;17.70;99.90;;;14.39;46.97;97524.41;5017524;28;20041;-65
2021/04/20 10:44:09;;;;;;;;;;;17.90;99.80;;;15.66;45.92;97512.31;5008167;28;20513;-65
2021/04/20 10:46:36;;;;;;;13.00;10.05;;;18.00;99.90;;;15.49;45.56;97521.25;5004558;28;20026;-65
2021/04/20 10:49:04;;;;;;;13.60;10.18;;;17.60;99.90;;;15.37;45.44;97514.16;5011137;28;20057;-65
2021/04/20 10:51:39;;;;;;;14.30;9.93;;;17.30;99.90;;;14.52;45.69;97513.25;4997377;28;20413;-65
2021/04/20 10:54:09;;;;;;;11.88;8.10;;;17.30;99.90;;;14.68;43.79;97518.41;5011800;28;20099;-64